createdAt,value
2022-12-15T00:00:03.046Z,98319.22
2022-12-15T00:03:08.053Z,98309.72
2022-12-15T00:06:11.519Z,98310.19
2022-12-15T00:09:16.133Z,98298.00
2022-12-15T00:12:20.819Z,98285.66
2022-12-15T00:15:24.198Z,98286.59
2022-12-15T00:18:27.540Z,98283.69
2022-12-15T00:21:30.895Z,98274.50
2022-12-15T00:24:34.296Z,98265.28
2022-12-15T00:27:37.845Z,98259.38
2022-12-15T00:30:41.271Z,98261.06
2022-12-15T00:33:44.756Z,98253.59
2022-12-15T00:36:49.830Z,98252.28
2022-12-15T00:39:34.978Z,98245.41
2022-12-15T00:42:19.870Z,98241.41
2022-12-15T00:45:04.994Z,98228.25
2022-12-15T00:47:49.784Z,98234.56
2022-12-15T00:50:52.452Z,98235.16
2022-12-15T00:53:56.346Z,98231.91
2022-12-15T00:56:59.729Z,98225.75
2022-12-15T01:00:03.306Z,98227.16
2022-12-15T01:03:07.013Z,98224.88
2022-12-15T01:06:10.190Z,98209.34
2022-12-15T01:09:14.178Z,98221.13
2022-12-15T01:12:17.534Z,98206.91
2022-12-15T01:15:21.011Z,98196.59
2022-12-15T01:18:24.356Z,98195.47
2022-12-15T01:21:10.767Z,98190.69
2022-12-15T01:23:55.542Z,98178.22
2022-12-15T01:26:40.935Z,98180.97
2022-12-15T01:29:25.739Z,98183.16
2022-12-15T01:32:10.332Z,98179.25
2022-12-15T01:34:55.208Z,98174.00
2022-12-15T01:37:40.342Z,98171.72
2022-12-15T01:40:43.826Z,98163.19
2022-12-15T01:43:34.991Z,98153.66
2022-12-15T01:46:22.757Z,98160.50
2022-12-15T01:49:28.877Z,98163.63
2022-12-15T01:52:15.941Z,98165.00
2022-12-15T01:55:01.207Z,98152.13
2022-12-15T01:57:46.506Z,98152.97
2022-12-15T02:00:32.063Z,98151.56
2022-12-15T02:03:18.066Z,98159.59
2022-12-15T02:06:03.451Z,98161.94
2022-12-15T02:08:52.432Z,98155.28
2022-12-15T02:11:59.110Z,98161.72
2022-12-15T02:15:20.630Z,98164.88
2022-12-15T02:18:29.956Z,98166.44
2022-12-15T02:21:19.273Z,98150.31
2022-12-15T02:24:19.536Z,98147.78
2022-12-15T02:27:29.310Z,98151.47
2022-12-15T02:30:25.881Z,98150.22
2022-12-15T02:33:17.381Z,98146.50
2022-12-15T02:36:15.419Z,98143.38
2022-12-15T02:39:01.141Z,98135.38
2022-12-15T02:41:47.214Z,98126.59
2022-12-15T02:44:40.936Z,98119.94
2022-12-15T02:47:45.475Z,98124.22
2022-12-15T02:50:41.973Z,98104.91
2022-12-15T02:54:02.945Z,98103.75
2022-12-15T02:57:05.348Z,98089.72
2022-12-15T03:00:53.075Z,98092.84
2022-12-15T03:03:39.600Z,98090.50
2022-12-15T03:06:26.159Z,98088.16
2022-12-15T03:09:11.897Z,98087.56
2022-12-15T03:11:56.922Z,98084.06
2022-12-15T03:14:41.613Z,98087.03
2022-12-15T03:17:26.403Z,98070.28
2022-12-15T03:20:11.983Z,98074.56
2022-12-15T03:22:56.577Z,98075.94
2022-12-15T03:25:44.258Z,98072.63
2022-12-15T03:28:28.904Z,98060.19
2022-12-15T03:31:13.839Z,98063.75
2022-12-15T03:33:59.435Z,98066.25
2022-12-15T03:36:43.860Z,98062.75
2022-12-15T03:39:29.258Z,98046.03
2022-12-15T03:42:13.855Z,98046.81
2022-12-15T03:44:58.752Z,98035.97
2022-12-15T03:47:44.043Z,98036.94
2022-12-15T03:50:29.585Z,98035.81
2022-12-15T03:53:14.539Z,98042.41
2022-12-15T03:55:59.620Z,98025.69
2022-12-15T03:58:44.248Z,98026.88
2022-12-15T04:01:34.311Z,98020.28
2022-12-15T04:04:19.200Z,98017.56
2022-12-15T04:07:04.095Z,98017.19
2022-12-15T04:09:48.584Z,98012.13
2022-12-15T04:12:33.746Z,98008.44
2022-12-15T04:15:18.496Z,98013.31
2022-12-15T04:18:06.532Z,98003.03
2022-12-15T04:20:51.110Z,98008.50
2022-12-15T04:23:37.128Z,98008.91
2022-12-15T04:26:40.625Z,98004.44
2022-12-15T04:29:43.987Z,97997.84
2022-12-15T04:32:49.745Z,97985.78
2022-12-15T04:35:53.874Z,97976.25
2022-12-15T04:38:58.028Z,97973.56
2022-12-15T04:42:01.922Z,97971.63
2022-12-15T04:45:07.565Z,97983.72
2022-12-15T04:48:10.917Z,97975.31
2022-12-15T04:51:14.473Z,97976.34
2022-12-15T04:54:17.874Z,97982.00
2022-12-15T04:57:21.170Z,97976.16
2022-12-15T05:00:25.020Z,97975.03
2022-12-15T05:03:28.675Z,97968.97
2022-12-15T05:06:31.906Z,97975.59
2022-12-15T05:09:35.337Z,97979.31
2022-12-15T05:12:38.487Z,97986.13
2022-12-15T05:15:41.892Z,97985.38
2022-12-15T05:18:45.466Z,97986.16
2022-12-15T05:21:48.875Z,97989.88
2022-12-15T05:24:52.390Z,97999.81
2022-12-15T05:27:56.026Z,98012.72
2022-12-15T05:30:59.213Z,98017.75
2022-12-15T05:33:43.977Z,98018.94
2022-12-15T05:36:28.817Z,98013.34
2022-12-15T05:39:14.187Z,98009.66
2022-12-15T05:41:58.957Z,98009.81
2022-12-15T05:44:44.191Z,98012.19
2022-12-15T05:47:28.928Z,98022.34
2022-12-15T05:50:13.773Z,98019.63
2022-12-15T05:52:58.641Z,98020.22
2022-12-15T05:55:43.339Z,98028.41
2022-12-15T05:58:28.295Z,98051.19
2022-12-15T06:01:17.541Z,98054.13
2022-12-15T06:04:02.677Z,98043.03
2022-12-15T06:06:47.274Z,98042.66
2022-12-15T06:09:32.597Z,98051.25
2022-12-15T06:12:17.641Z,98059.78
2022-12-15T06:15:02.298Z,98067.81
2022-12-15T06:17:49.580Z,98071.09
2022-12-15T06:20:34.839Z,98065.44
2022-12-15T06:23:20.019Z,98079.47
2022-12-15T06:26:09.381Z,98086.13
2022-12-15T06:28:56.670Z,98086.13
2022-12-15T06:31:42.185Z,98089.25
2022-12-15T06:34:28.248Z,98091.19
2022-12-15T06:37:13.694Z,98099.19
2022-12-15T06:40:00.284Z,98084.75
2022-12-15T06:42:45.151Z,98097.44
2022-12-15T06:45:30.149Z,98099.00
2022-12-15T06:48:15.213Z,98109.56
2022-12-15T06:51:04.952Z,98112.84
2022-12-15T06:53:57.346Z,98101.72
2022-12-15T06:56:43.772Z,98112.47
2022-12-15T06:59:55.625Z,98122.63
2022-12-15T07:02:43.853Z,98116.75
2022-12-15T07:05:35.543Z,98129.63
2022-12-15T07:08:24.391Z,98137.44
2022-12-15T07:11:15.975Z,98140.56
2022-12-15T07:14:01.324Z,98140.75
2022-12-15T07:16:46.356Z,98144.09
2022-12-15T07:19:34.117Z,98151.53
2022-12-15T07:22:21.333Z,98148.22
2022-12-15T07:25:09.023Z,98149.00
2022-12-15T07:28:25.607Z,98154.81
2022-12-15T07:31:11.800Z,98151.94
2022-12-15T07:33:56.908Z,98154.09
2022-12-15T07:36:47.044Z,98155.66
2022-12-15T07:39:34.761Z,98152.34
2022-12-15T07:42:19.879Z,98160.53
2022-12-15T07:45:06.982Z,98175.97
2022-12-15T07:47:54.505Z,98177.72
2022-12-15T07:50:39.566Z,98178.31
2022-12-15T07:53:34.228Z,98176.75
2022-12-15T07:56:20.982Z,98181.25
2022-12-15T07:59:32.094Z,98168.56
2022-12-15T08:02:17.455Z,98182.44
2022-12-15T08:05:02.659Z,98198.47
2022-12-15T08:08:30.815Z,98199.06
2022-12-15T08:11:36.627Z,98196.50
2022-12-15T08:14:22.312Z,98203.97
2022-12-15T08:17:07.463Z,98224.84
2022-12-15T08:19:55.810Z,98215.13
2022-12-15T08:23:21.425Z,98209.25
2022-12-15T08:31:38.330Z,98190.13
2022-12-15T08:34:59.753Z,98202.28
2022-12-15T08:38:12.853Z,98210.94
2022-12-15T08:41:58.296Z,98217.44
2022-12-15T08:44:44.536Z,98212.56
2022-12-15T08:47:29.984Z,98212.00
2022-12-15T08:50:16.089Z,98218.66
2022-12-15T08:53:30.286Z,98215.16
2022-12-15T08:56:18.879Z,98217.31
2022-12-15T08:59:04.130Z,98230.19
2022-12-15T09:01:48.858Z,98221.41
2022-12-15T09:04:33.939Z,98226.28
2022-12-15T09:07:18.738Z,98225.53
2022-12-15T09:10:03.638Z,98230.19
2022-12-15T09:12:49.121Z,98228.44
2022-12-15T09:16:07.845Z,98232.34
2022-12-15T09:18:42.280Z,98238.44
2022-12-15T09:21:29.549Z,98235.47
2022-12-15T09:24:20.610Z,98237.63
2022-12-15T09:27:09.975Z,98252.13
2022-12-15T09:29:55.071Z,98246.03
2022-12-15T09:32:39.909Z,98258.34
2022-12-15T09:35:28.591Z,98247.78
2022-12-15T09:38:14.944Z,98259.72
2022-12-15T09:41:28.898Z,98266.19
2022-12-15T09:44:19.886Z,98265.81
2022-12-15T09:48:06.080Z,98266.38
2022-12-15T09:50:54.328Z,98262.69
2022-12-15T09:53:56.025Z,98268.53
2022-12-15T09:56:52.692Z,98269.31
2022-12-15T09:59:49.339Z,98274.22
2022-12-15T10:03:00.798Z,98278.31
2022-12-15T10:12:36.869Z,98291.63
2022-12-15T10:15:35.672Z,98289.09
2022-12-15T10:18:33.584Z,98287.31
2022-12-15T10:21:45.757Z,98287.72
2022-12-15T10:25:16.460Z,98295.75
2022-12-15T10:28:32.470Z,98292.81
2022-12-15T10:31:35.420Z,98290.06
2022-12-15T10:34:35.894Z,98291.22
2022-12-15T10:37:21.118Z,98300.22
2022-12-15T10:40:06.851Z,98292.81
2022-12-15T10:42:51.792Z,98302.19
2022-12-15T10:49:42.131Z,98311.94
2022-12-15T10:52:35.293Z,98321.13
2022-12-15T10:55:42.650Z,98320.75
2022-12-15T10:58:27.917Z,98328.75
2022-12-15T11:01:19.511Z,98338.88
2022-12-15T11:08:16.858Z,98345.31
2022-12-15T11:12:21.029Z,98344.31
2022-12-15T11:15:36.840Z,98334.16
2022-12-15T11:18:24.661Z,98345.09
2022-12-15T11:21:34.632Z,98349.22
2022-12-15T11:24:34.862Z,98353.09
2022-12-15T11:28:03.431Z,98357.03
2022-12-15T11:31:00.574Z,98354.88
2022-12-15T11:33:46.068Z,98352.31
2022-12-15T11:36:52.248Z,98366.63
2022-12-15T11:40:00.517Z,98378.16
2022-12-15T11:43:13.159Z,98378.16
2022-12-15T11:46:13.125Z,98382.25
2022-12-15T11:49:13.496Z,98386.38
2022-12-15T11:52:22.862Z,98392.25
2022-12-15T11:55:41.480Z,98382.44
2022-12-15T11:58:41.833Z,98397.13
2022-12-15T12:01:55.405Z,98401.41
2022-12-15T12:04:50.858Z,98389.28
2022-12-15T12:07:47.684Z,98391.03
2022-12-15T12:10:52.948Z,98397.69
2022-12-15T12:14:09.653Z,98392.63
2022-12-15T12:17:20.570Z,98401.22
2022-12-15T12:20:14.333Z,98396.53
2022-12-15T12:23:02.090Z,98405.53
2022-12-15T12:26:03.440Z,98404.94
2022-12-15T12:28:51.725Z,98416.47
2022-12-15T12:32:03.843Z,98418.00
2022-12-15T12:35:31.368Z,98429.53
2022-12-15T12:38:09.863Z,98432.84
2022-12-15T12:41:15.082Z,98430.06
2022-12-15T12:44:20.049Z,98433.34
2022-12-15T12:47:14.686Z,98433.94
2022-12-15T12:50:21.115Z,98432.38
2022-12-15T12:53:24.884Z,98433.72
2022-12-15T12:56:40.375Z,98442.91
2022-12-15T12:59:28.204Z,98447.38
2022-12-15T13:02:25.277Z,98451.25
2022-12-15T13:05:45.258Z,98445.00
2022-12-15T13:08:51.390Z,98453.59
2022-12-15T13:11:50.622Z,98473.06
2022-12-15T13:14:38.457Z,98460.91
2022-12-15T13:17:32.087Z,98464.03
2022-12-15T13:20:28.039Z,98464.75
2022-12-15T13:23:21.721Z,98465.53
2022-12-15T13:26:06.782Z,98474.31
2022-12-15T13:28:51.819Z,98471.97
2022-12-15T13:31:49.000Z,98469.00
2022-12-15T13:34:38.416Z,98475.44
2022-12-15T13:37:59.526Z,98478.13
2022-12-15T13:40:47.542Z,98482.81
2022-12-15T13:43:46.190Z,98484.72
2022-12-15T13:46:35.030Z,98493.47
2022-12-15T13:49:32.603Z,98502.25
2022-12-15T13:53:08.115Z,98508.47
2022-12-15T13:55:53.029Z,98516.63
2022-12-15T13:58:43.821Z,98515.41
2022-12-15T14:01:32.829Z,98518.91
2022-12-15T14:04:20.752Z,98518.69
2022-12-15T14:07:05.977Z,98517.28
2022-12-15T14:09:50.598Z,98524.47
2022-12-15T14:12:38.614Z,98533.81
2022-12-15T14:15:29.400Z,98534.19
2022-12-15T14:18:27.991Z,98544.50
2022-12-15T14:21:20.146Z,98538.06
2022-12-15T14:27:29.952Z,98560.44
2022-12-15T14:30:21.880Z,98558.69
2022-12-15T14:33:15.495Z,98563.94
2022-12-15T14:36:04.126Z,98576.63
2022-12-15T14:38:59.876Z,98578.53
2022-12-15T14:41:48.819Z,98577.56
2022-12-15T14:44:39.136Z,98583.00
2022-12-15T14:47:35.265Z,98585.88
2022-12-15T14:50:25.287Z,98589.41
2022-12-15T14:53:17.249Z,98591.69
2022-12-15T14:56:30.940Z,98595.53
2022-12-15T14:59:20.425Z,98591.34
2022-12-15T15:02:08.761Z,98600.28
2022-12-15T15:05:06.814Z,98599.03
2022-12-15T15:07:56.042Z,98613.88
2022-12-15T15:10:41.745Z,98605.69
2022-12-15T15:13:39.962Z,98613.53
2022-12-15T15:16:26.454Z,98628.91
2022-12-15T15:19:21.293Z,98626.56
2022-12-15T15:22:12.424Z,98634.16
2022-12-15T15:24:57.496Z,98639.03
2022-12-15T15:27:42.377Z,98649.03
2022-12-15T15:30:27.306Z,98643.94
2022-12-15T15:33:13.215Z,98645.09
2022-12-15T15:36:00.247Z,98661.84
2022-12-15T15:38:46.458Z,98649.19
2022-12-15T15:41:33.179Z,98656.03
2022-12-15T15:44:17.855Z,98661.84
2022-12-15T15:47:03.933Z,98663.63
2022-12-15T15:49:49.830Z,98666.16
2022-12-15T15:52:34.915Z,98648.75
2022-12-15T15:55:24.449Z,98650.50
2022-12-15T15:58:13.022Z,98660.19
2022-12-15T16:00:58.457Z,98656.09
2022-12-15T16:03:43.539Z,98654.53
2022-12-15T16:06:28.048Z,98655.50
2022-12-15T16:09:14.551Z,98657.72
2022-12-15T16:11:59.323Z,98667.44
2022-12-15T16:14:43.966Z,98661.13
2022-12-15T16:17:28.792Z,98665.34
2022-12-15T16:20:14.581Z,98660.44
2022-12-15T16:23:02.907Z,98662.72
2022-12-15T16:25:57.563Z,98668.28
2022-12-15T16:28:42.589Z,98677.19
2022-12-15T16:31:32.943Z,98674.38
2022-12-15T16:34:24.076Z,98691.84
2022-12-15T16:37:26.269Z,98686.78
2022-12-15T16:40:26.125Z,98686.94
2022-12-15T16:43:21.948Z,98695.03
2022-12-15T16:46:06.890Z,98698.50
2022-12-15T16:48:52.000Z,98711.06
2022-12-15T16:51:40.241Z,98707.75
2022-12-15T16:54:30.033Z,98703.63
2022-12-15T16:57:14.946Z,98702.16
2022-12-15T17:00:01.310Z,98704.22
2022-12-15T17:02:46.637Z,98699.50
2022-12-15T17:05:34.161Z,98707.50
2022-12-15T17:08:27.113Z,98704.81
2022-12-15T17:11:25.341Z,98715.38
2022-12-15T17:14:10.919Z,98710.78
2022-12-15T17:16:55.932Z,98721.69
2022-12-15T17:19:52.597Z,98718.38
2022-12-15T17:22:52.007Z,98735.75
2022-12-15T17:26:17.213Z,98731.50
2022-12-15T17:28:45.995Z,98754.72
2022-12-15T17:31:35.772Z,98754.72
2022-12-15T17:34:30.645Z,98770.97
2022-12-15T17:37:16.906Z,98762.59
2022-12-15T17:40:02.695Z,98764.50
2022-12-15T17:42:48.808Z,98757.44
2022-12-15T17:45:34.649Z,98761.41
2022-12-15T17:48:25.124Z,98768.56
2022-12-15T17:51:15.593Z,98757.06
2022-12-15T17:54:03.276Z,98761.78
2022-12-15T17:56:49.844Z,98757.13
2022-12-15T17:59:36.238Z,98762.59
2022-12-15T18:02:21.648Z,98757.31
2022-12-15T18:05:07.723Z,98758.28
2022-12-15T18:07:56.249Z,98772.06
2022-12-15T18:10:41.657Z,98771.63
2022-12-15T18:13:35.072Z,98779.97
2022-12-15T18:16:21.896Z,98778.41
2022-12-15T18:19:07.176Z,98789.75
2022-12-15T18:21:52.219Z,98799.34
2022-12-15T18:24:37.615Z,98809.09
2022-12-15T18:27:26.294Z,98821.84
2022-12-15T18:30:18.980Z,98818.34
2022-12-15T18:33:04.767Z,98816.09
2022-12-15T18:35:52.097Z,98822.25
2022-12-15T18:38:37.432Z,98829.97
2022-12-15T18:41:23.860Z,98840.09
2022-12-15T18:44:29.582Z,98855.78
2022-12-15T18:47:19.330Z,98861.81
2022-12-15T18:50:11.627Z,98870.53
2022-12-15T18:53:05.313Z,98887.13
2022-12-15T18:55:52.217Z,98887.56
2022-12-15T18:58:39.156Z,98896.75
2022-12-15T19:01:24.568Z,98908.44
2022-12-15T19:04:13.715Z,98907.47
2022-12-15T19:07:06.395Z,98914.94
2022-12-15T19:09:53.613Z,98913.16
2022-12-15T19:12:39.344Z,98924.69
2022-12-15T19:15:26.336Z,98927.22
2022-12-15T19:18:39.389Z,98918.53
2022-12-15T19:21:48.937Z,98921.88
2022-12-15T19:24:53.874Z,98913.38
2022-12-15T19:27:43.796Z,98913.56
2022-12-15T19:30:41.667Z,98908.81
2022-12-15T19:33:29.451Z,98890.81
2022-12-15T19:36:19.253Z,98883.06
2022-12-15T19:39:13.339Z,98889.09
2022-12-15T19:45:00.274Z,98898.75
2022-12-15T19:47:50.841Z,98913.91
2022-12-15T19:50:38.142Z,98908.22
2022-12-15T19:53:36.550Z,98916.91
2022-12-15T19:56:23.538Z,98909.16
2022-12-15T19:59:21.813Z,98910.88
2022-12-15T20:02:14.958Z,98916.13
2022-12-15T20:05:02.540Z,98910.88
2022-12-15T20:07:52.840Z,98914.03
2022-12-15T20:10:38.517Z,98917.66
2022-12-15T20:13:26.015Z,98923.69
2022-12-15T20:16:11.007Z,98923.69
2022-12-15T20:18:59.577Z,98934.44
2022-12-15T20:21:44.854Z,98934.91
2022-12-15T20:24:32.650Z,98940.28
2022-12-15T20:27:18.988Z,98937.56
2022-12-15T20:30:05.163Z,98941.53
2022-12-15T20:32:50.262Z,98946.13
2022-12-15T20:35:36.901Z,98949.13
2022-12-15T20:38:31.791Z,98958.28
2022-12-15T20:41:19.659Z,98963.19
2022-12-15T20:44:09.154Z,98973.31
2022-12-15T20:46:54.126Z,98973.94
2022-12-15T20:49:38.946Z,98968.09
2022-12-15T20:52:26.633Z,98966.34
2022-12-15T20:55:14.063Z,98967.63
2022-12-15T20:57:59.060Z,98964.78
2022-12-15T21:00:45.604Z,98966.03
2022-12-15T21:03:35.920Z,98978.69
2022-12-15T21:06:22.765Z,98977.91
2022-12-15T21:09:12.789Z,98978.38
2022-12-15T21:11:57.956Z,98985.34
2022-12-15T21:14:42.951Z,98986.13
2022-12-15T21:17:28.535Z,98986.91
2022-12-15T21:20:13.739Z,98985.16
2022-12-15T21:22:58.548Z,98975.03
2022-12-15T21:25:43.427Z,98976.00
2022-12-15T21:28:28.415Z,98988.97
2022-12-15T21:31:14.938Z,98972.06
2022-12-15T21:33:59.924Z,98973.00
2022-12-15T21:36:46.778Z,98987.84
2022-12-15T21:39:34.809Z,98983.13
2022-12-15T21:42:20.684Z,98987.56
2022-12-15T21:45:14.115Z,98980.75
2022-12-15T21:48:17.606Z,98990.06
2022-12-15T21:51:03.173Z,98993.41
2022-12-15T21:53:47.771Z,99003.97
2022-12-15T21:56:33.010Z,98999.25
2022-12-15T21:59:22.542Z,98998.16
2022-12-15T22:02:24.892Z,98993.09
2022-12-15T22:05:19.818Z,99006.50
2022-12-15T22:08:21.498Z,99021.53
2022-12-15T22:11:32.130Z,99031.03
2022-12-15T22:14:43.266Z,99037.03
2022-12-15T22:17:28.289Z,99037.84
2022-12-15T22:20:21.837Z,99037.03
2022-12-15T22:23:06.634Z,99036.72
2022-12-15T22:25:55.353Z,99026.59
2022-12-15T22:28:40.101Z,99042.91
2022-12-15T22:31:25.102Z,99046.97
2022-12-15T22:34:18.853Z,99052.38
2022-12-15T22:37:03.614Z,99056.34
2022-12-15T22:39:53.224Z,99054.91
2022-12-15T22:42:43.574Z,99057.09
2022-12-15T22:45:28.255Z,99052.03
2022-12-15T22:48:14.871Z,99055.53
2022-12-15T22:51:04.337Z,99067.09
2022-12-15T22:53:49.368Z,99057.91
2022-12-15T22:56:39.284Z,99055.06
2022-12-15T22:59:31.696Z,99060.13
2022-12-15T23:02:16.928Z,99049.81
2022-12-15T23:05:03.441Z,99047.47
2022-12-15T23:07:47.990Z,99049.19
2022-12-15T23:10:51.460Z,99037.50
2022-12-15T23:13:36.485Z,99021.69
2022-12-15T23:16:21.916Z,99037.03
2022-12-15T23:19:08.345Z,99039.56
2022-12-15T23:21:53.411Z,99037.53
2022-12-15T23:24:38.600Z,99050.94
2022-12-15T23:27:23.746Z,99056.34
2022-12-15T23:30:08.651Z,99058.06
2022-12-15T23:32:55.460Z,99050.78
2022-12-15T23:35:40.449Z,99060.59
2022-12-15T23:38:26.707Z,99067.41
2022-12-15T23:41:16.478Z,99063.28
2022-12-15T23:44:01.128Z,99068.19
2022-12-15T23:46:46.233Z,99061.41
2022-12-15T23:49:31.057Z,99052.22
2022-12-15T23:52:17.792Z,99044.47
2022-12-15T23:55:02.947Z,99047.94
2022-12-15T23:57:47.522Z,99039.72
